sensor_id;sensor_type;location;lat;lon;timestamp;temperature;humidity
31113;DHT22;17763;48.730;9.136;2023-10-31T00:01:54;11.20;99.90
31113;DHT22;17763;48.730;9.136;2023-10-31T00:04:20;11.40;99.90
31113;DHT22;17763;48.730;9.136;2023-10-31T00:06:46;11.20;99.90
31113;DHT22;17763;48.730;9.136;2023-10-31T00:09:12;11.20;99.90
31113;DHT22;17763;48.730;9.136;2023-10-31T00:11:38;11.20;99.90
31113;DHT22;17763;48.730;9.136;2023-10-31T00:14:04;11.20;99.90
31113;DHT22;17763;48.730;9.136;2023-10-31T00:16:29;11.20;99.90
31113;DHT22;17763;48.730;9.136;2023-10-31T00:18:55;11.10;99.90
31113;DHT22;17763;48.730;9.136;2023-10-31T00:21:21;11.10;99.90
31113;DHT22;17763;48.730;9.136;2023-10-31T00:23:48;11.10;99.90
31113;DHT22;17763;48.730;9.136;2023-10-31T00:26:14;11.10;99.90
31113;DHT22;17763;48.730;9.136;2023-10-31T00:28:40;11.00;99.90
31113;DHT22;17763;48.730;9.136;2023-10-31T00:31:06;11.00;99.90
31113;DHT22;17763;48.730;9.136;2023-10-31T00:33:39;11.00;99.90
31113;DHT22;17763;48.730;9.136;2023-10-31T00:36:05;11.00;99.90
31113;DHT22;17763;48.730;9.136;2023-10-31T00:38:32;11.00;99.90
31113;DHT22;17763;48.730;9.136;2023-10-31T00:41:00;10.90;99.90
31113;DHT22;17763;48.730;9.136;2023-10-31T00:43:25;10.90;99.90
31113;DHT22;17763;48.730;9.136;2023-10-31T00:45:53;11.00;99.90
31113;DHT22;17763;48.730;9.136;2023-10-31T00:48:19;10.90;99.90
31113;DHT22;17763;48.730;9.136;2023-10-31T00:50:45;10.90;99.90
31113;DHT22;17763;48.730;9.136;2023-10-31T00:53:11;10.90;99.90
31113;DHT22;17763;48.730;9.136;2023-10-31T00:55:39;11.00;99.90
31113;DHT22;17763;48.730;9.136;2023-10-31T00:58:04;10.90;99.90
31113;DHT22;17763;48.730;9.136;2023-10-31T01:00:30;11.00;99.90
31113;DHT22;17763;48.730;9.136;2023-10-31T01:02:57;10.90;99.90
31113;DHT22;17763;48.730;9.136;2023-10-31T01:05:25;10.90;99.90
31113;DHT22;17763;48.730;9.136;2023-10-31T01:07:52;10.80;99.90
31113;DHT22;17763;48.730;9.136;2023-10-31T01:10:17;10.80;99.90
31113;DHT22;17763;48.730;9.136;2023-10-31T01:12:43;10.80;99.90
31113;DHT22;17763;48.730;9.136;2023-10-31T01:15:09;10.70;99.90
31113;DHT22;17763;48.730;9.136;2023-10-31T01:17:37;10.70;99.90
31113;DHT22;17763;48.730;9.136;2023-10-31T01:20:03;10.60;99.90
31113;DHT22;17763;48.730;9.136;2023-10-31T01:22:29;10.60;99.90
31113;DHT22;17763;48.730;9.136;2023-10-31T01:24:55;10.50;99.90
31113;DHT22;17763;48.730;9.136;2023-10-31T01:27:23;10.50;99.90
31113;DHT22;17763;48.730;9.136;2023-10-31T01:29:51;10.50;99.90
31113;DHT22;17763;48.730;9.136;2023-10-31T01:32:16;10.50;99.90
31113;DHT22;17763;48.730;9.136;2023-10-31T01:34:45;10.40;99.90
31113;DHT22;17763;48.730;9.136;2023-10-31T01:37:10;10.40;99.90
31113;DHT22;17763;48.730;9.136;2023-10-31T01:39:36;10.30;99.90
31113;DHT22;17763;48.730;9.136;2023-10-31T01:42:02;10.30;99.90
31113;DHT22;17763;48.730;9.136;2023-10-31T01:44:28;10.30;99.90
31113;DHT22;17763;48.730;9.136;2023-10-31T01:46:54;10.30;99.90
31113;DHT22;17763;48.730;9.136;2023-10-31T01:49:19;10.30;99.90
31113;DHT22;17763;48.730;9.136;2023-10-31T01:51:45;10.20;99.90
31113;DHT22;17763;48.730;9.136;2023-10-31T01:54:12;10.30;99.90
31113;DHT22;17763;48.730;9.136;2023-10-31T01:56:38;10.20;99.90
31113;DHT22;17763;48.730;9.136;2023-10-31T01:59:10;10.20;99.90
31113;DHT22;17763;48.730;9.136;2023-10-31T02:01:39;10.20;99.90
31113;DHT22;17763;48.730;9.136;2023-10-31T02:04:05;10.20;99.90
31113;DHT22;17763;48.730;9.136;2023-10-31T02:06:31;10.20;99.90
31113;DHT22;17763;48.730;9.136;2023-10-31T02:08:59;10.20;99.90
31113;DHT22;17763;48.730;9.136;2023-10-31T02:11:25;10.20;99.90
31113;DHT22;17763;48.730;9.136;2023-10-31T02:13:53;10.20;99.90
31113;DHT22;17763;48.730;9.136;2023-10-31T02:16:19;10.20;99.90
31113;DHT22;17763;48.730;9.136;2023-10-31T02:18:47;10.20;99.90
31113;DHT22;17763;48.730;9.136;2023-10-31T02:21:13;10.20;99.90
31113;DHT22;17763;48.730;9.136;2023-10-31T02:23:39;10.20;99.90
31113;DHT22;17763;48.730;9.136;2023-10-31T02:26:05;10.20;99.90
31113;DHT22;17763;48.730;9.136;2023-10-31T02:28:31;10.20;99.90
31113;DHT22;17763;48.730;9.136;2023-10-31T02:30:56;10.20;99.90
31113;DHT22;17763;48.730;9.136;2023-10-31T02:33:22;10.20;99.90
31113;DHT22;17763;48.730;9.136;2023-10-31T02:35:48;10.20;99.90
31113;DHT22;17763;48.730;9.136;2023-10-31T02:38:14;10.20;99.90
31113;DHT22;17763;48.730;9.136;2023-10-31T02:40:39;10.20;99.90
31113;DHT22;17763;48.730;9.136;2023-10-31T02:43:08;10.20;99.90
31113;DHT22;17763;48.730;9.136;2023-10-31T02:45:34;10.20;99.90
31113;DHT22;17763;48.730;9.136;2023-10-31T02:48:01;10.20;99.90
31113;DHT22;17763;48.730;9.136;2023-10-31T02:50:29;10.20;99.90
31113;DHT22;17763;48.730;9.136;2023-10-31T02:52:58;10.20;99.90
31113;DHT22;17763;48.730;9.136;2023-10-31T02:55:26;10.20;99.90
31113;DHT22;17763;48.730;9.136;2023-10-31T02:57:52;10.20;99.90
31113;DHT22;17763;48.730;9.136;2023-10-31T03:00:18;10.30;99.90
31113;DHT22;17763;48.730;9.136;2023-10-31T03:02:44;10.30;99.90
31113;DHT22;17763;48.730;9.136;2023-10-31T03:05:09;10.30;99.90
31113;DHT22;17763;48.730;9.136;2023-10-31T03:07:35;10.30;99.90
31113;DHT22;17763;48.730;9.136;2023-10-31T03:10:02;10.30;99.90
31113;DHT22;17763;48.730;9.136;2023-10-31T03:12:28;10.30;99.90
31113;DHT22;17763;48.730;9.136;2023-10-31T03:14:56;10.30;99.90
31113;DHT22;17763;48.730;9.136;2023-10-31T03:17:22;10.30;99.90
31113;DHT22;17763;48.730;9.136;2023-10-31T03:19:48;10.30;99.90
31113;DHT22;17763;48.730;9.136;2023-10-31T03:22:16;10.30;99.90
31113;DHT22;17763;48.730;9.136;2023-10-31T03:24:46;10.30;99.90
31113;DHT22;17763;48.730;9.136;2023-10-31T03:27:16;10.30;99.90
31113;DHT22;17763;48.730;9.136;2023-10-31T03:29:42;10.20;99.90
31113;DHT22;17763;48.730;9.136;2023-10-31T03:32:08;10.40;99.90
31113;DHT22;17763;48.730;9.136;2023-10-31T03:34:37;10.30;99.90
31113;DHT22;17763;48.730;9.136;2023-10-31T03:37:04;10.30;99.90
31113;DHT22;17763;48.730;9.136;2023-10-31T03:39:30;10.30;99.90
31113;DHT22;17763;48.730;9.136;2023-10-31T03:41:56;10.20;99.90
31113;DHT22;17763;48.730;9.136;2023-10-31T03:44:21;10.20;99.90
31113;DHT22;17763;48.730;9.136;2023-10-31T03:46:47;10.20;99.90
31113;DHT22;17763;48.730;9.136;2023-10-31T03:49:13;10.20;99.90
31113;DHT22;17763;48.730;9.136;2023-10-31T03:51:39;10.20;99.90
31113;DHT22;17763;48.730;9.136;2023-10-31T03:54:07;10.10;99.90
31113;DHT22;17763;48.730;9.136;2023-10-31T03:56:42;10.10;99.90
31113;DHT22;17763;48.730;9.136;2023-10-31T03:59:08;10.00;99.90
31113;DHT22;17763;48.730;9.136;2023-10-31T04:01:34;10.00;99.90
31113;DHT22;17763;48.730;9.136;2023-10-31T04:04:00;10.00;99.90
31113;DHT22;17763;48.730;9.136;2023-10-31T04:06:26;10.00;99.90
31113;DHT22;17763;48.730;9.136;2023-10-31T04:08:52;10.00;99.90
31113;DHT22;17763;48.730;9.136;2023-10-31T04:11:17;10.00;99.90
31113;DHT22;17763;48.730;9.136;2023-10-31T04:13:43;10.00;99.90
31113;DHT22;17763;48.730;9.136;2023-10-31T04:16:11;10.00;99.90
31113;DHT22;17763;48.730;9.136;2023-10-31T04:18:42;10.00;99.90
31113;DHT22;17763;48.730;9.136;2023-10-31T04:21:08;9.90;99.90
31113;DHT22;17763;48.730;9.136;2023-10-31T04:23:34;9.90;99.90
31113;DHT22;17763;48.730;9.136;2023-10-31T04:26:00;9.90;99.90
31113;DHT22;17763;48.730;9.136;2023-10-31T04:28:25;9.90;99.90
31113;DHT22;17763;48.730;9.136;2023-10-31T04:30:54;10.00;99.90
31113;DHT22;17763;48.730;9.136;2023-10-31T04:33:21;9.90;99.90
31113;DHT22;17763;48.730;9.136;2023-10-31T04:35:47;9.80;99.90
31113;DHT22;17763;48.730;9.136;2023-10-31T04:38:13;9.80;99.90
31113;DHT22;17763;48.730;9.136;2023-10-31T04:40:41;9.80;99.90
31113;DHT22;17763;48.730;9.136;2023-10-31T04:43:11;9.90;99.90
31113;DHT22;17763;48.730;9.136;2023-10-31T04:45:37;9.80;99.90
31113;DHT22;17763;48.730;9.136;2023-10-31T04:48:03;9.80;99.90
31113;DHT22;17763;48.730;9.136;2023-10-31T04:50:31;9.80;99.90
31113;DHT22;17763;48.730;9.136;2023-10-31T04:52:59;9.70;99.90
31113;DHT22;17763;48.730;9.136;2023-10-31T04:55:27;9.70;99.90
31113;DHT22;17763;48.730;9.136;2023-10-31T04:57:55;9.60;99.90
31113;DHT22;17763;48.730;9.136;2023-10-31T05:00:21;9.60;99.90
31113;DHT22;17763;48.730;9.136;2023-10-31T05:02:49;9.60;99.90
31113;DHT22;17763;48.730;9.136;2023-10-31T05:05:17;9.60;99.90
31113;DHT22;17763;48.730;9.136;2023-10-31T05:07:43;9.60;99.90
31113;DHT22;17763;48.730;9.136;2023-10-31T05:10:09;9.60;99.90
31113;DHT22;17763;48.730;9.136;2023-10-31T05:12:38;9.50;99.90
31113;DHT22;17763;48.730;9.136;2023-10-31T05:15:04;9.50;99.90
31113;DHT22;17763;48.730;9.136;2023-10-31T05:17:32;9.50;99.90
31113;DHT22;17763;48.730;9.136;2023-10-31T05:20:03;9.40;99.90
31113;DHT22;17763;48.730;9.136;2023-10-31T05:22:31;9.40;99.90
31113;DHT22;17763;48.730;9.136;2023-10-31T05:25:00;9.40;99.90
31113;DHT22;17763;48.730;9.136;2023-10-31T05:27:25;9.40;99.90
31113;DHT22;17763;48.730;9.136;2023-10-31T05:29:54;9.40;99.90
31113;DHT22;17763;48.730;9.136;2023-10-31T05:32:19;9.40;99.90
31113;DHT22;17763;48.730;9.136;2023-10-31T05:34:45;9.40;99.90
31113;DHT22;17763;48.730;9.136;2023-10-31T05:37:11;9.40;99.90
31113;DHT22;17763;48.730;9.136;2023-10-31T05:39:37;9.40;99.90
31113;DHT22;17763;48.730;9.136;2023-10-31T05:42:03;9.40;99.90
31113;DHT22;17763;48.730;9.136;2023-10-31T05:44:31;9.40;99.90
31113;DHT22;17763;48.730;9.136;2023-10-31T05:46:59;9.30;99.90
31113;DHT22;17763;48.730;9.136;2023-10-31T05:49:25;9.30;99.90
31113;DHT22;17763;48.730;9.136;2023-10-31T05:51:51;9.30;99.90
31113;DHT22;17763;48.730;9.136;2023-10-31T05:54:17;9.30;99.90
31113;DHT22;17763;48.730;9.136;2023-10-31T05:56:43;9.30;99.90
31113;DHT22;17763;48.730;9.136;2023-10-31T05:59:12;9.30;99.90
31113;DHT22;17763;48.730;9.136;2023-10-31T06:01:38;9.30;99.90
31113;DHT22;17763;48.730;9.136;2023-10-31T06:04:04;9.30;99.90
31113;DHT22;17763;48.730;9.136;2023-10-31T06:06:32;9.30;99.90
31113;DHT22;17763;48.730;9.136;2023-10-31T06:08:58;9.30;99.90
31113;DHT22;17763;48.730;9.136;2023-10-31T06:11:25;9.30;99.90
31113;DHT22;17763;48.730;9.136;2023-10-31T06:13:54;9.30;99.90
31113;DHT22;17763;48.730;9.136;2023-10-31T06:16:25;9.20;99.90
31113;DHT22;17763;48.730;9.136;2023-10-31T06:18:50;9.20;99.90
31113;DHT22;17763;48.730;9.136;2023-10-31T06:21:16;9.20;99.90
31113;DHT22;17763;48.730;9.136;2023-10-31T06:23:44;9.20;99.90
31113;DHT22;17763;48.730;9.136;2023-10-31T06:26:11;9.30;99.90
31113;DHT22;17763;48.730;9.136;2023-10-31T06:28:37;9.30;99.90
31113;DHT22;17763;48.730;9.136;2023-10-31T06:31:04;9.30;99.90
31113;DHT22;17763;48.730;9.136;2023-10-31T06:33:30;9.30;99.90
31113;DHT22;17763;48.730;9.136;2023-10-31T06:35:58;9.30;99.90
31113;DHT22;17763;48.730;9.136;2023-10-31T06:38:24;9.30;99.90
31113;DHT22;17763;48.730;9.136;2023-10-31T06:40:50;9.30;99.90
31113;DHT22;17763;48.730;9.136;2023-10-31T06:43:15;9.30;99.90
31113;DHT22;17763;48.730;9.136;2023-10-31T06:45:41;9.30;99.90
31113;DHT22;17763;48.730;9.136;2023-10-31T06:48:10;9.40;99.90
31113;DHT22;17763;48.730;9.136;2023-10-31T06:50:35;9.40;99.90
31113;DHT22;17763;48.730;9.136;2023-10-31T06:53:01;9.40;99.90
31113;DHT22;17763;48.730;9.136;2023-10-31T06:55:27;9.40;99.90
31113;DHT22;17763;48.730;9.136;2023-10-31T06:57:55;9.50;99.90
31113;DHT22;17763;48.730;9.136;2023-10-31T07:00:21;9.50;99.90
31113;DHT22;17763;48.730;9.136;2023-10-31T07:02:47;9.50;99.90
31113;DHT22;17763;48.730;9.136;2023-10-31T07:05:15;9.50;99.90
31113;DHT22;17763;48.730;9.136;2023-10-31T07:07:48;9.60;99.90
31113;DHT22;17763;48.730;9.136;2023-10-31T07:10:14;9.60;99.90
31113;DHT22;17763;48.730;9.136;2023-10-31T07:12:40;9.70;99.90
31113;DHT22;17763;48.730;9.136;2023-10-31T07:15:06;9.70;99.90
31113;DHT22;17763;48.730;9.136;2023-10-31T07:17:32;9.70;99.90
31113;DHT22;17763;48.730;9.136;2023-10-31T07:19:58;9.80;99.90
31113;DHT22;17763;48.730;9.136;2023-10-31T07:22:26;9.80;99.90
31113;DHT22;17763;48.730;9.136;2023-10-31T07:24:54;9.80;99.90
31113;DHT22;17763;48.730;9.136;2023-10-31T07:27:20;9.90;99.90
31113;DHT22;17763;48.730;9.136;2023-10-31T07:29:46;9.90;99.90
31113;DHT22;17763;48.730;9.136;2023-10-31T07:32:14;9.90;99.90
31113;DHT22;17763;48.730;9.136;2023-10-31T07:34:43;10.00;99.90
31113;DHT22;17763;48.730;9.136;2023-10-31T07:37:09;10.00;99.90
31113;DHT22;17763;48.730;9.136;2023-10-31T07:39:37;10.00;99.90
31113;DHT22;17763;48.730;9.136;2023-10-31T07:42:03;10.00;99.90
31113;DHT22;17763;48.730;9.136;2023-10-31T07:44:29;10.10;99.90
31113;DHT22;17763;48.730;9.136;2023-10-31T07:46:57;10.10;99.90
31113;DHT22;17763;48.730;9.136;2023-10-31T07:49:23;10.20;99.90
31113;DHT22;17763;48.730;9.136;2023-10-31T07:51:49;10.30;99.90
31113;DHT22;17763;48.730;9.136;2023-10-31T07:54:15;10.30;99.90
31113;DHT22;17763;48.730;9.136;2023-10-31T07:56:44;10.40;99.90
31113;DHT22;17763;48.730;9.136;2023-10-31T07:59:12;10.40;99.90
31113;DHT22;17763;48.730;9.136;2023-10-31T08:01:41;10.40;99.90
31113;DHT22;17763;48.730;9.136;2023-10-31T08:04:07;10.50;99.90
31113;DHT22;17763;48.730;9.136;2023-10-31T08:06:32;10.50;99.90
31113;DHT22;17763;48.730;9.136;2023-10-31T08:08:58;10.60;99.90
31113;DHT22;17763;48.730;9.136;2023-10-31T08:11:24;10.60;99.90
31113;DHT22;17763;48.730;9.136;2023-10-31T08:13:50;10.70;99.90
31113;DHT22;17763;48.730;9.136;2023-10-31T08:16:19;10.70;99.90
31113;DHT22;17763;48.730;9.136;2023-10-31T08:18:45;10.80;99.90
31113;DHT22;17763;48.730;9.136;2023-10-31T08:21:17;10.90;99.90
31113;DHT22;17763;48.730;9.136;2023-10-31T08:23:43;11.00;99.90
31113;DHT22;17763;48.730;9.136;2023-10-31T08:26:12;11.10;99.90
31113;DHT22;17763;48.730;9.136;2023-10-31T08:28:38;11.20;99.90
31113;DHT22;17763;48.730;9.136;2023-10-31T08:31:04;11.20;99.90
31113;DHT22;17763;48.730;9.136;2023-10-31T08:33:32;11.20;99.90
31113;DHT22;17763;48.730;9.136;2023-10-31T08:35:58;11.30;99.90
31113;DHT22;17763;48.730;9.136;2023-10-31T08:38:27;11.30;99.90
31113;DHT22;17763;48.730;9.136;2023-10-31T08:40:54;11.40;99.90
31113;DHT22;17763;48.730;9.136;2023-10-31T08:43:19;11.40;99.90
31113;DHT22;17763;48.730;9.136;2023-10-31T08:45:48;11.50;99.90
31113;DHT22;17763;48.730;9.136;2023-10-31T08:48:14;11.50;99.90
31113;DHT22;17763;48.730;9.136;2023-10-31T08:50:41;11.50;99.90
31113;DHT22;17763;48.730;9.136;2023-10-31T08:53:09;11.40;99.90
31113;DHT22;17763;48.730;9.136;2023-10-31T08:55:35;11.40;99.90
31113;DHT22;17763;48.730;9.136;2023-10-31T08:58:01;11.40;99.90
31113;DHT22;17763;48.730;9.136;2023-10-31T09:00:26;11.50;99.90
31113;DHT22;17763;48.730;9.136;2023-10-31T09:02:54;11.50;99.90
31113;DHT22;17763;48.730;9.136;2023-10-31T09:05:20;11.50;99.90
31113;DHT22;17763;48.730;9.136;2023-10-31T09:07:48;11.50;99.90
31113;DHT22;17763;48.730;9.136;2023-10-31T09:10:14;11.50;99.90
31113;DHT22;17763;48.730;9.136;2023-10-31T09:12:39;11.60;99.90
31113;DHT22;17763;48.730;9.136;2023-10-31T09:15:06;11.60;99.90
31113;DHT22;17763;48.730;9.136;2023-10-31T09:17:32;11.70;99.90
31113;DHT22;17763;48.730;9.136;2023-10-31T09:19:58;11.70;99.90
31113;DHT22;17763;48.730;9.136;2023-10-31T09:22:24;11.90;99.90
31113;DHT22;17763;48.730;9.136;2023-10-31T09:24:50;12.00;99.90
31113;DHT22;17763;48.730;9.136;2023-10-31T09:27:16;12.10;99.90
31113;DHT22;17763;48.730;9.136;2023-10-31T09:29:42;12.00;99.90
31113;DHT22;17763;48.730;9.136;2023-10-31T09:32:08;11.90;99.90
31113;DHT22;17763;48.730;9.136;2023-10-31T09:34:33;11.90;99.90
31113;DHT22;17763;48.730;9.136;2023-10-31T09:36:59;12.00;99.90
31113;DHT22;17763;48.730;9.136;2023-10-31T09:39:27;12.00;99.90
31113;DHT22;17763;48.730;9.136;2023-10-31T09:41:54;12.00;99.90
31113;DHT22;17763;48.730;9.136;2023-10-31T09:44:19;12.00;99.90
31113;DHT22;17763;48.730;9.136;2023-10-31T09:46:45;12.00;99.90
31113;DHT22;17763;48.730;9.136;2023-10-31T09:49:12;11.90;99.90
31113;DHT22;17763;48.730;9.136;2023-10-31T09:51:38;12.00;99.90
31113;DHT22;17763;48.730;9.136;2023-10-31T09:54:05;12.00;99.90
31113;DHT22;17763;48.730;9.136;2023-10-31T09:56:32;11.90;99.90
31113;DHT22;17763;48.730;9.136;2023-10-31T09:59:01;11.90;99.90
31113;DHT22;17763;48.730;9.136;2023-10-31T10:01:30;11.90;99.90
31113;DHT22;17763;48.730;9.136;2023-10-31T10:03:58;11.90;99.90
31113;DHT22;17763;48.730;9.136;2023-10-31T10:06:24;11.90;99.90
31113;DHT22;17763;48.730;9.136;2023-10-31T10:08:50;11.80;99.90
31113;DHT22;17763;48.730;9.136;2023-10-31T10:11:16;11.70;99.90
31113;DHT22;17763;48.730;9.136;2023-10-31T10:13:42;11.70;99.90
31113;DHT22;17763;48.730;9.136;2023-10-31T10:16:09;11.70;99.90
31113;DHT22;17763;48.730;9.136;2023-10-31T10:18:38;11.70;99.90
31113;DHT22;17763;48.730;9.136;2023-10-31T10:21:08;11.70;99.90
31113;DHT22;17763;48.730;9.136;2023-10-31T10:23:34;11.70;99.90
31113;DHT22;17763;48.730;9.136;2023-10-31T10:26:01;11.70;99.90
31113;DHT22;17763;48.730;9.136;2023-10-31T10:28:27;11.50;99.90
31113;DHT22;17763;48.730;9.136;2023-10-31T10:30:55;11.60;99.90
31113;DHT22;17763;48.730;9.136;2023-10-31T10:33:23;11.50;99.90
31113;DHT22;17763;48.730;9.136;2023-10-31T10:35:51;11.50;99.90
31113;DHT22;17763;48.730;9.136;2023-10-31T10:38:20;11.50;99.90
31113;DHT22;17763;48.730;9.136;2023-10-31T10:40:49;11.60;99.90
31113;DHT22;17763;48.730;9.136;2023-10-31T10:43:22;11.70;99.90
31113;DHT22;17763;48.730;9.136;2023-10-31T10:45:56;11.70;99.90
31113;DHT22;17763;48.730;9.136;2023-10-31T10:48:33;11.70;99.90
31113;DHT22;17763;48.730;9.136;2023-10-31T10:51:20;11.70;99.90
31113;DHT22;17763;48.730;9.136;2023-10-31T10:53:49;11.70;99.90
31113;DHT22;17763;48.730;9.136;2023-10-31T10:56:49;11.70;99.90
31113;DHT22;17763;48.730;9.136;2023-10-31T10:59:21;11.80;99.90
31113;DHT22;17763;48.730;9.136;2023-10-31T11:01:52;11.90;99.90
31113;DHT22;17763;48.730;9.136;2023-10-31T11:04:19;12.00;99.90
31113;DHT22;17763;48.730;9.136;2023-10-31T11:06:47;12.10;99.90
31113;DHT22;17763;48.730;9.136;2023-10-31T11:09:14;12.10;99.90
31113;DHT22;17763;48.730;9.136;2023-10-31T11:11:40;12.20;99.90
31113;DHT22;17763;48.730;9.136;2023-10-31T11:14:10;12.20;99.90
31113;DHT22;17763;48.730;9.136;2023-10-31T11:16:45;12.20;99.90
31113;DHT22;17763;48.730;9.136;2023-10-31T11:19:13;12.30;99.90
31113;DHT22;17763;48.730;9.136;2023-10-31T11:21:59;12.30;99.90
31113;DHT22;17763;48.730;9.136;2023-10-31T11:24:31;12.40;99.90
31113;DHT22;17763;48.730;9.136;2023-10-31T11:27:03;12.40;99.90
31113;DHT22;17763;48.730;9.136;2023-10-31T11:29:32;12.40;99.90
31113;DHT22;17763;48.730;9.136;2023-10-31T11:31:58;12.40;99.90
31113;DHT22;17763;48.730;9.136;2023-10-31T11:34:31;12.40;99.90
31113;DHT22;17763;48.730;9.136;2023-10-31T11:37:41;12.50;99.90
31113;DHT22;17763;48.730;9.136;2023-10-31T11:40:25;12.60;99.90
31113;DHT22;17763;48.730;9.136;2023-10-31T11:42:56;12.60;99.90
31113;DHT22;17763;48.730;9.136;2023-10-31T11:45:41;12.60;99.90
31113;DHT22;17763;48.730;9.136;2023-10-31T11:48:10;12.70;99.90
31113;DHT22;17763;48.730;9.136;2023-10-31T11:50:37;12.70;99.90
31113;DHT22;17763;48.730;9.136;2023-10-31T11:55:36;12.70;99.90
31113;DHT22;17763;48.730;9.136;2023-10-31T11:58:16;12.80;99.90
31113;DHT22;17763;48.730;9.136;2023-10-31T12:00:45;12.80;99.90
31113;DHT22;17763;48.730;9.136;2023-10-31T12:03:11;12.70;99.90
31113;DHT22;17763;48.730;9.136;2023-10-31T12:05:39;12.70;99.90
31113;DHT22;17763;48.730;9.136;2023-10-31T12:08:05;12.60;99.90
31113;DHT22;17763;48.730;9.136;2023-10-31T12:10:31;12.50;99.90
31113;DHT22;17763;48.730;9.136;2023-10-31T12:12:58;12.50;99.90
31113;DHT22;17763;48.730;9.136;2023-10-31T12:15:26;12.50;99.90
31113;DHT22;17763;48.730;9.136;2023-10-31T12:17:52;12.40;99.90
31113;DHT22;17763;48.730;9.136;2023-10-31T12:20:22;12.40;99.90
31113;DHT22;17763;48.730;9.136;2023-10-31T12:23:05;12.30;99.90
31113;DHT22;17763;48.730;9.136;2023-10-31T12:25:33;12.20;99.90
31113;DHT22;17763;48.730;9.136;2023-10-31T12:28:01;12.20;99.90
31113;DHT22;17763;48.730;9.136;2023-10-31T12:30:29;12.30;99.90
31113;DHT22;17763;48.730;9.136;2023-10-31T12:32:55;12.30;99.90
31113;DHT22;17763;48.730;9.136;2023-10-31T12:35:23;12.30;99.90
31113;DHT22;17763;48.730;9.136;2023-10-31T12:37:50;12.30;99.90
31113;DHT22;17763;48.730;9.136;2023-10-31T12:40:20;12.30;99.90
31113;DHT22;17763;48.730;9.136;2023-10-31T12:42:48;12.30;99.90
31113;DHT22;17763;48.730;9.136;2023-10-31T12:45:15;12.30;99.90
31113;DHT22;17763;48.730;9.136;2023-10-31T12:47:43;12.30;99.90
31113;DHT22;17763;48.730;9.136;2023-10-31T12:50:16;12.30;99.90
31113;DHT22;17763;48.730;9.136;2023-10-31T12:52:46;12.30;99.90
31113;DHT22;17763;48.730;9.136;2023-10-31T12:55:16;12.30;99.90
31113;DHT22;17763;48.730;9.136;2023-10-31T12:57:42;12.30;99.90
31113;DHT22;17763;48.730;9.136;2023-10-31T13:00:12;12.20;99.90
31113;DHT22;17763;48.730;9.136;2023-10-31T13:02:44;12.20;99.90
31113;DHT22;17763;48.730;9.136;2023-10-31T13:05:14;12.10;99.90
31113;DHT22;17763;48.730;9.136;2023-10-31T13:07:51;12.10;99.90
31113;DHT22;17763;48.730;9.136;2023-10-31T13:10:19;12.20;99.90
31113;DHT22;17763;48.730;9.136;2023-10-31T13:12:47;12.20;99.90
31113;DHT22;17763;48.730;9.136;2023-10-31T13:15:14;12.20;99.90
31113;DHT22;17763;48.730;9.136;2023-10-31T13:17:40;12.10;99.90
31113;DHT22;17763;48.730;9.136;2023-10-31T13:20:14;12.10;99.90
31113;DHT22;17763;48.730;9.136;2023-10-31T13:22:41;12.10;99.90
31113;DHT22;17763;48.730;9.136;2023-10-31T13:25:11;12.10;99.90
31113;DHT22;17763;48.730;9.136;2023-10-31T13:27:40;12.10;99.90
31113;DHT22;17763;48.730;9.136;2023-10-31T13:30:11;12.10;99.90
31113;DHT22;17763;48.730;9.136;2023-10-31T13:32:37;12.10;99.90
31113;DHT22;17763;48.730;9.136;2023-10-31T13:35:05;12.20;99.90
31113;DHT22;17763;48.730;9.136;2023-10-31T13:37:35;12.30;99.90
31113;DHT22;17763;48.730;9.136;2023-10-31T13:40:01;12.40;99.90
31113;DHT22;17763;48.730;9.136;2023-10-31T13:42:31;12.50;99.90
31113;DHT22;17763;48.730;9.136;2023-10-31T13:44:59;12.50;99.90
31113;DHT22;17763;48.730;9.136;2023-10-31T13:47:27;12.60;99.90
31113;DHT22;17763;48.730;9.136;2023-10-31T13:49:55;12.70;99.90
31113;DHT22;17763;48.730;9.136;2023-10-31T13:52:21;12.70;99.90
31113;DHT22;17763;48.730;9.136;2023-10-31T13:54:47;12.70;99.90
31113;DHT22;17763;48.730;9.136;2023-10-31T13:57:13;12.70;99.90
31113;DHT22;17763;48.730;9.136;2023-10-31T13:59:43;12.80;99.90
31113;DHT22;17763;48.730;9.136;2023-10-31T14:02:09;12.70;99.90
31113;DHT22;17763;48.730;9.136;2023-10-31T14:04:37;12.70;99.90
31113;DHT22;17763;48.730;9.136;2023-10-31T14:07:02;12.70;99.90
31113;DHT22;17763;48.730;9.136;2023-10-31T14:09:31;12.70;99.90
31113;DHT22;17763;48.730;9.136;2023-10-31T14:11:59;12.70;99.90
31113;DHT22;17763;48.730;9.136;2023-10-31T14:14:28;12.70;99.90
31113;DHT22;17763;48.730;9.136;2023-10-31T14:16:53;12.80;99.90
31113;DHT22;17763;48.730;9.136;2023-10-31T14:19:20;12.90;99.90
31113;DHT22;17763;48.730;9.136;2023-10-31T14:21:47;12.80;99.90
31113;DHT22;17763;48.730;9.136;2023-10-31T14:24:14;12.90;99.90
31113;DHT22;17763;48.730;9.136;2023-10-31T14:26:40;12.90;99.90
31113;DHT22;17763;48.730;9.136;2023-10-31T14:29:10;12.90;99.90
31113;DHT22;17763;48.730;9.136;2023-10-31T14:31:41;12.80;99.90
31113;DHT22;17763;48.730;9.136;2023-10-31T14:34:06;12.80;99.90
31113;DHT22;17763;48.730;9.136;2023-10-31T14:36:32;12.70;99.90
31113;DHT22;17763;48.730;9.136;2023-10-31T14:38:58;12.70;99.90
31113;DHT22;17763;48.730;9.136;2023-10-31T14:41:26;12.70;99.90
31113;DHT22;17763;48.730;9.136;2023-10-31T14:43:52;12.70;99.90
31113;DHT22;17763;48.730;9.136;2023-10-31T14:46:17;12.60;99.90
31113;DHT22;17763;48.730;9.136;2023-10-31T14:48:43;12.60;99.90
31113;DHT22;17763;48.730;9.136;2023-10-31T14:51:09;12.60;99.90
31113;DHT22;17763;48.730;9.136;2023-10-31T14:53:35;12.60;99.90
31113;DHT22;17763;48.730;9.136;2023-10-31T14:56:00;12.60;99.90
31113;DHT22;17763;48.730;9.136;2023-10-31T14:58:27;12.60;99.90
31113;DHT22;17763;48.730;9.136;2023-10-31T15:00:53;12.60;99.90
31113;DHT22;17763;48.730;9.136;2023-10-31T15:03:19;12.60;99.90
31113;DHT22;17763;48.730;9.136;2023-10-31T15:05:45;12.60;99.90
31113;DHT22;17763;48.730;9.136;2023-10-31T15:08:13;12.50;99.90
31113;DHT22;17763;48.730;9.136;2023-10-31T15:10:38;12.60;99.90
31113;DHT22;17763;48.730;9.136;2023-10-31T15:13:04;12.60;99.90
31113;DHT22;17763;48.730;9.136;2023-10-31T15:15:30;12.60;99.90
31113;DHT22;17763;48.730;9.136;2023-10-31T15:17:58;12.50;99.90
31113;DHT22;17763;48.730;9.136;2023-10-31T15:20:23;12.40;99.90
31113;DHT22;17763;48.730;9.136;2023-10-31T15:22:49;12.40;99.90
31113;DHT22;17763;48.730;9.136;2023-10-31T15:25:15;12.20;99.90
31113;DHT22;17763;48.730;9.136;2023-10-31T15:27:40;12.20;99.90
31113;DHT22;17763;48.730;9.136;2023-10-31T15:30:08;12.10;99.90
31113;DHT22;17763;48.730;9.136;2023-10-31T15:32:38;12.10;99.90
31113;DHT22;17763;48.730;9.136;2023-10-31T15:35:05;12.00;99.90
31113;DHT22;17763;48.730;9.136;2023-10-31T15:37:34;11.90;99.90
31113;DHT22;17763;48.730;9.136;2023-10-31T15:40:02;11.90;99.90